Georgetown, IN (47122)

3:18 PM EDT on April 28, 2015 (GMT -0400)
Lanesville | | Change Station
CLOSE
Current Station
Personal Weather Station
Location: Lanesville, IN
Elevation: 855 ft
Nearby Weather Stations

Elev 855 ft 38.27 °N, 85.97 °W | Updated 7 minutes ago

Clear
Clear
61.4 °F
Feels Like 61.4 °F
N
5.0
Wind Variable Wind from South
Gusts 8.0 mph

Today
High -- | Low -- °F
--% Chance of Precip.
Yesterday
High -- | Low -- °F
Precip. -- in
6:51 AM 8:32 PM
Waxing Gibbous, 75% visible
Pressure 30.01 in
Visibility 10.0 miles
Clouds Few 5500 ft
Few 25000 ft
Dew Point 41 °F
Humidity 46%
Rainfall 0.00 in
Snow Depth Not available.
UV 9 out of 12
Pollen 10.10 out of 12
Air Quality Not available.
Flu Activity Local Activity
METAR KSDF 281856Z 07010G15KT 10SM FEW055 FEW250 17/03 A3001 RMK AO2 SLP160 T01720028

More Conditions Fewer Conditions

Pressure 30.01 in
Visibility 10.0 miles
Clouds Few 5500 ft
Few 25000 ft
Dew Point 41 °F
Humidity 46%
Rainfall 0.00 in
Snow Depth Not available.
UV 9 out of 12
Pollen 10.10 out of 12
Air Quality Not available.
Flu Activity Local Activity
METAR KSDF 281856Z 07010G15KT 10SM FEW055 FEW250 17/03 A3001 RMK AO2 SLP160 T01720028

More Conditions Fewer Conditions

10-Day Weather Forecast

Almanac

Astronomy

Apr. 28, 2015 Rise Set
Actual Time
Civil Twilight
Nautical Twilight
Astronomical Twilight
Moon
Length of Visible Light
Length of Day
Tomorrow will be .
, % of the Moon is Illuminated

Today's Extremes

State Highs State Lows

Community

WunderPhotos

Upload Photos

1,817,733 photos uploaded!

WunderBlogs® & News

Nearby

Air Quality

  Air Quality AQ Index Pollutant
Not available.

Snow Depth

Station Depth Elevation

Earthquake Activity

City Distance Mag. Time & Date
Minimum magnitude displayed is 2.5.

Coastal Water Temperatures

Place Temperature

Stations

Nearby Weather Stations

Station Location Temp. Windchill Dew Point Humidity Wind Precip. Elev Updated Type